Time;durP1;ratioP1;P1;durP2;ratioP2;P2;SDS_P1;SDS_P2;PMS_P1;PMS_P2;Temp;Humidity;BMP_temperature;BMP_pressure;BME280_temperature;BME280_humidity;BME280_pressure;Samples;Min_cycle;Max_cycle;Signal;HPM_P1;HPM_P2
2022/07/23 00:02:06;;;;;;;6.10;5.60;;;24.10;61.90;;;;;;5052497;28;20037;-65
2022/07/23 00:04:32;;;;;;;6.63;5.80;;;24.10;61.90;;;;;;5053146;28;20025;-63
2022/07/23 00:06:58;;;;;;;5.78;5.22;;;24.10;62.50;;;;;;5051669;28;20411;-63
2022/07/23 00:09:23;;;;;;;7.20;5.30;;;24.10;62.70;;;;;;5053875;28;20489;-62
2022/07/23 00:11:49;;;;;;;9.32;5.43;;;24.10;63.40;;;;;;5052574;28;20216;-63
2022/07/23 00:14:15;;;;;;;6.43;5.72;;;24.10;63.40;;;;;;5054090;28;20051;-62
2022/07/23 00:16:40;;;;;;;7.28;5.63;;;24.10;63.90;;;;;;5051547;28;20037;-63
2022/07/23 00:19:06;;;;;;;7.80;5.65;;;24.10;64.40;;;;;;5052510;28;20063;-65
2022/07/23 00:21:31;;;;;;;6.45;5.85;;;24.10;64.40;;;;;;5050804;28;20044;-63
2022/07/23 00:23:57;;;;;;;6.00;5.50;;;24.00;65.20;;;;;;5051365;28;20041;-63
2022/07/23 00:26:23;;;;;;;6.85;5.13;;;24.00;64.50;;;;;;5050490;28;20040;-63
2022/07/23 00:28:48;;;;;;;5.88;5.28;;;24.00;64.00;;;;;;5050758;28;20060;-66
2022/07/23 00:31:14;;;;;;;11.50;5.20;;;23.90;63.80;;;;;;5051971;28;20041;-64
2022/07/23 00:33:39;;;;;;;5.90;5.32;;;23.80;64.20;;;;;;5053649;28;20039;-63
2022/07/23 00:36:05;;;;;;;5.40;4.90;;;23.70;64.30;;;;;;5052393;28;20153;-65
2022/07/23 00:38:31;;;;;;;5.78;5.22;;;23.70;64.90;;;;;;5056810;28;20037;-64
2022/07/23 00:40:57;;;;;;;6.03;5.53;;;23.70;65.50;;;;;;5052464;28;20040;-67
2022/07/23 00:43:23;;;;;;;7.82;5.63;;;23.70;65.80;;;;;;5056058;28;20060;-64
2022/07/23 00:45:49;;;;;;;6.28;5.68;;;23.70;65.70;;;;;;5056423;28;20162;-65
2022/07/23 00:48:15;;;;;;;6.18;5.28;;;23.70;65.20;;;;;;5056018;28;20037;-66
2022/07/23 00:50:40;;;;;;;7.65;5.30;;;23.70;65.40;;;;;;5053361;28;20033;-66
2022/07/23 00:53:08;;;;;;;6.00;5.35;;;23.70;65.60;;;;;;5055279;28;20029;-62
2022/07/23 00:55:34;;;;;;;6.03;5.45;;;23.60;65.60;;;;;;5052606;28;20041;-63
2022/07/23 00:58:00;;;;;;;6.32;5.13;;;23.60;65.50;;;;;;5053747;28;20047;-63
2022/07/23 01:00:26;;;;;;;5.07;4.68;;;23.60;65.50;;;;;;5054853;28;20033;-67
2022/07/23 01:02:52;;;;;;;5.90;4.72;;;23.60;65.40;;;;;;5058567;28;20259;-64
2022/07/23 01:05:21;;;;;;;5.82;5.10;;;23.60;65.10;;;;;;5056025;28;20119;-63
2022/07/23 01:07:49;;;;;;;5.72;5.03;;;23.60;65.20;;;;;;5053860;28;20064;-62
2022/07/23 01:10:33;;;;;;;5.70;5.20;;;23.50;65.00;;;;;;5054955;28;20444;-62
2022/07/23 01:13:09;;;;;;;5.53;5.03;;;23.50;64.90;;;;;;5054592;28;21970;-62
2022/07/23 01:15:36;;;;;;;6.57;5.03;;;23.50;65.50;;;;;;5052687;28;20480;-63
2022/07/23 01:18:03;;;;;;;5.45;4.93;;;23.40;64.70;;;;;;5053595;28;20123;-65
2022/07/23 01:20:29;;;;;;;5.68;5.10;;;23.40;64.90;;;;;;5051091;28;20033;-62
2022/07/23 01:22:55;;;;;;;5.60;5.10;;;23.30;65.20;;;;;;5052530;28;20410;-62
2022/07/23 01:25:21;;;;;;;5.53;5.03;;;23.20;65.20;;;;;;5053487;28;20037;-63
2022/07/23 01:27:47;;;;;;;6.05;5.50;;;23.10;65.30;;;;;;5050755;28;20036;-66
2022/07/23 01:30:13;;;;;;;6.60;6.00;;;23.10;65.60;;;;;;5051435;28;20037;-63
2022/07/23 01:32:39;;;;;;;6.43;5.82;;;23.00;65.80;;;;;;5052655;28;20136;-63
2022/07/23 01:35:06;;;;;;;6.30;5.70;;;22.90;66.00;;;;;;5053164;28;20159;-64
2022/07/23 01:37:31;;;;;;;6.68;5.70;;;22.90;66.40;;;;;;5051450;28;20468;-62
2022/07/23 01:39:57;;;;;;;6.72;6.03;;;22.80;66.70;;;;;;5053986;28;20100;-65
2022/07/23 01:42:23;;;;;;;6.28;5.68;;;22.70;66.80;;;;;;5054347;28;20055;-62
2022/07/23 01:44:49;;;;;;;8.52;6.22;;;22.70;67.30;;;;;;5051072;28;20051;-62
2022/07/23 01:47:15;;;;;;;8.30;6.05;;;22.60;68.40;;;;;;5053754;28;20044;-62
2022/07/23 01:49:40;;;;;;;6.22;5.63;;;22.60;68.00;;;;;;5052302;28;20040;-64
2022/07/23 01:52:10;;;;;;;6.47;5.72;;;22.50;67.80;;;;;;5054033;28;20040;-63
2022/07/23 01:54:37;;;;;;;6.90;6.03;;;22.40;67.90;;;;;;5053110;28;20040;-64
2022/07/23 01:57:02;;;;;;;8.10;6.10;;;22.40;68.30;;;;;;5053068;28;20094;-59
2022/07/23 01:59:28;;;;;;;6.40;5.80;;;22.40;68.00;;;;;;5054104;28;20048;-63
2022/07/23 02:01:54;;;;;;;6.65;5.95;;;22.40;68.20;;;;;;5049635;28;20040;-64
2022/07/23 02:04:22;;;;;;;6.20;5.47;;;22.40;68.50;;;;;;5050695;28;20025;-65
2022/07/23 02:06:48;;;;;;;6.93;6.18;;;22.30;68.60;;;;;;5053506;28;20041;-62
2022/07/23 02:09:14;;;;;;;7.35;6.07;;;22.30;68.70;;;;;;5055631;28;20041;-65
2022/07/23 02:11:39;;;;;;;6.50;5.90;;;22.30;68.60;;;;;;5054176;28;20043;-63
2022/07/23 02:14:05;;;;;;;6.55;5.95;;;22.30;68.70;;;;;;5057800;28;20039;-64
2022/07/23 02:16:31;;;;;;;6.68;6.07;;;22.30;68.60;;;;;;5053541;28;20409;-64
2022/07/23 02:18:57;;;;;;;6.30;5.70;;;22.30;68.30;;;;;;5056604;28;20047;-61
2022/07/23 02:21:22;;;;;;;7.43;5.85;;;22.30;68.30;;;;;;5056856;28;20040;-60
2022/07/23 02:23:49;;;;;;;9.38;6.07;;;22.30;68.40;;;;;;5054352;28;20474;-61
2022/07/23 02:26:14;;;;;;;6.15;5.63;;;22.30;68.50;;;;;;5055959;28;20702;-63
2022/07/23 02:28:40;;;;;;;6.32;5.72;;;22.30;69.00;;;;;;5054948;28;20127;-64
2022/07/23 02:31:06;;;;;;;6.35;5.75;;;22.20;68.30;;;;;;5055342;28;20081;-64
2022/07/23 02:33:32;;;;;;;6.65;5.72;;;22.10;68.50;;;;;;5057145;28;20033;-66
2022/07/23 02:35:58;;;;;;;7.70;5.95;;;22.00;68.50;;;;;;5055418;28;20501;-63
2022/07/23 02:38:24;;;;;;;6.38;5.78;;;22.00;68.90;;;;;;5054993;28;20028;-61
2022/07/23 02:40:49;;;;;;;6.15;5.63;;;22.00;69.00;;;;;;5055757;28;20091;-63
2022/07/23 02:43:15;;;;;;;6.43;5.70;;;22.00;69.30;;;;;;5055421;28;20037;-61
2022/07/23 02:45:40;;;;;;;6.40;5.80;;;22.00;69.40;;;;;;5054704;28;20331;-62
2022/07/23 02:48:06;;;;;;;8.05;6.18;;;22.00;69.30;;;;;;5056580;28;20484;-63
2022/07/23 02:50:32;;;;;;;7.57;6.22;;;22.10;69.70;;;;;;5054464;28;20067;-60
2022/07/23 02:52:57;;;;;;;8.52;6.65;;;22.10;69.20;;;;;;5055255;28;20071;-60
2022/07/23 02:55:23;;;;;;;7.93;6.63;;;22.00;69.00;;;;;;5056913;28;20075;-62
2022/07/23 02:57:48;;;;;;;9.57;6.63;;;22.00;68.50;;;;;;5055795;28;20536;-65
2022/07/23 03:00:14;;;;;;;8.50;7.22;;;22.00;69.20;;;;;;5056090;28;20461;-64
2022/07/23 03:02:40;;;;;;;7.72;6.85;;;21.90;70.10;;;;;;5052835;28;20028;-64
2022/07/23 03:05:06;;;;;;;8.63;6.18;;;21.80;69.30;;;;;;5056358;28;20178;-62
2022/07/23 03:07:32;;;;;;;6.90;6.20;;;21.70;69.90;;;;;;5055020;28;20029;-62
2022/07/23 03:09:57;;;;;;;8.63;6.45;;;21.70;70.60;;;;;;5052891;28;20388;-63
2022/07/23 03:12:23;;;;;;;7.85;6.75;;;21.70;70.80;;;;;;5055582;28;20106;-62
2022/07/23 03:14:49;;;;;;;8.13;6.60;;;21.60;71.10;;;;;;5055323;28;20044;-61
2022/07/23 03:17:14;;;;;;;7.72;6.28;;;21.60;71.40;;;;;;5050805;28;20090;-62
2022/07/23 03:19:40;;;;;;;8.85;6.47;;;21.70;71.40;;;;;;5054879;28;20047;-65
2022/07/23 03:22:05;;;;;;;7.85;6.53;;;21.70;71.80;;;;;;5055614;28;20611;-64
2022/07/23 03:27:16;;;;;;;6.67;6.07;;;21.70;71.70;;;;;;5055734;28;20138;-63
2022/07/23 03:29:41;;;;;;;9.35;6.55;;;21.60;71.60;;;;;;5052289;28;20128;-63
2022/07/23 03:32:07;;;;;;;8.95;6.70;;;21.60;72.30;;;;;;5054662;28;20147;-64
2022/07/23 03:34:33;;;;;;;7.47;6.65;;;21.60;73.40;;;;;;5054758;28;20586;-64
2022/07/23 03:36:58;;;;;;;7.22;6.50;;;21.60;72.60;;;;;;5055305;28;20040;-63
2022/07/23 03:39:24;;;;;;;6.90;6.32;;;21.60;72.40;;;;;;5055723;28;20210;-65
2022/07/23 03:41:50;;;;;;;6.72;6.13;;;21.70;72.70;;;;;;5055935;28;20108;-64
2022/07/23 03:44:15;;;;;;;6.93;6.20;;;21.70;73.30;;;;;;5055000;28;20028;-65
2022/07/23 03:46:41;;;;;;;7.93;6.35;;;21.70;72.30;;;;;;5053847;28;20037;-62
2022/07/23 03:49:07;;;;;;;6.95;6.32;;;21.70;72.50;;;;;;5055928;28;20033;-66
2022/07/23 03:51:32;;;;;;;8.35;7.18;;;21.70;72.60;;;;;;5054808;28;20447;-62
2022/07/23 03:53:58;;;;;;;7.75;6.82;;;21.80;72.50;;;;;;5054005;28;20044;-63
2022/07/23 03:56:24;;;;;;;8.32;7.30;;;21.70;72.50;;;;;;5055305;28;20141;-65
2022/07/23 03:58:49;;;;;;;7.63;6.93;;;21.60;73.00;;;;;;5054421;28;20267;-62
2022/07/23 04:01:15;;;;;;;8.38;7.43;;;21.50;73.20;;;;;;5052671;28;20033;-62
2022/07/23 04:03:40;;;;;;;8.27;6.95;;;21.50;73.70;;;;;;5054503;28;20123;-63
2022/07/23 04:06:06;;;;;;;8.15;7.32;;;21.40;73.90;;;;;;5053883;28;20032;-64
2022/07/23 04:08:32;;;;;;;8.38;7.03;;;21.40;74.10;;;;;;5057519;28;20484;-63
2022/07/23 04:10:57;;;;;;;8.18;6.78;;;21.40;74.20;;;;;;5054633;28;20102;-62
2022/07/23 04:13:23;;;;;;;7.68;6.63;;;21.30;73.90;;;;;;5061012;28;20517;-63
2022/07/23 04:15:50;;;;;;;7.40;6.70;;;21.30;74.00;;;;;;5056764;28;20100;-63
2022/07/23 04:18:17;;;;;;;11.52;7.72;;;21.30;74.00;;;;;;5057793;28;20033;-62
2022/07/23 04:20:43;;;;;;;7.97;7.18;;;21.40;74.20;;;;;;5053797;28;20063;-66
2022/07/23 04:23:09;;;;;;;10.82;7.60;;;21.40;74.40;;;;;;5055393;28;20105;-64
2022/07/23 04:25:35;;;;;;;9.05;7.13;;;21.30;74.60;;;;;;5056460;28;20028;-65
2022/07/23 04:28:01;;;;;;;10.80;7.43;;;21.30;74.60;;;;;;5053825;28;20068;-61
2022/07/23 04:30:26;;;;;;;8.05;7.25;;;21.30;74.60;;;;;;5056583;28;20041;-65
2022/07/23 04:32:52;;;;;;;8.38;7.43;;;21.20;74.70;;;;;;5054331;28;20571;-65
2022/07/23 04:35:18;;;;;;;10.20;7.68;;;21.20;74.70;;;;;;5056961;28;20063;-64
2022/07/23 04:37:43;;;;;;;11.05;7.25;;;21.10;74.60;;;;;;5055573;28;20430;-63
2022/07/23 04:40:09;;;;;;;8.65;7.75;;;21.20;74.80;;;;;;5053771;28;20033;-65
2022/07/23 04:42:35;;;;;;;9.15;7.10;;;21.10;74.70;;;;;;5055698;28;20098;-63
2022/07/23 04:45:01;;;;;;;12.45;7.40;;;21.10;74.90;;;;;;5055332;28;20560;-63
2022/07/23 04:47:26;;;;;;;9.93;7.72;;;21.00;75.10;;;;;;5055563;28;20041;-63
2022/07/23 04:49:52;;;;;;;10.75;8.05;;;21.00;75.20;;;;;;5054132;28;20397;-63
2022/07/23 04:52:17;;;;;;;9.93;7.35;;;21.10;75.10;;;;;;5053736;28;20040;-65
2022/07/23 04:54:43;;;;;;;9.43;7.18;;;21.10;74.90;;;;;;5053297;28;20087;-66
2022/07/23 04:57:08;;;;;;;7.88;6.82;;;21.20;74.90;;;;;;5054696;28;20025;-62
2022/07/23 04:59:34;;;;;;;7.40;6.70;;;21.20;74.60;;;;;;5055201;28;20024;-64
2022/07/23 05:01:59;;;;;;;7.70;6.70;;;21.20;74.40;;;;;;5052454;28;20519;-62
2022/07/23 05:04:25;;;;;;;8.88;7.50;;;21.20;74.00;;;;;;5054439;28;20108;-66
2022/07/23 05:06:51;;;;;;;7.55;6.65;;;21.20;74.00;;;;;;5056176;28;20044;-65
2022/07/23 05:09:16;;;;;;;8.13;6.95;;;21.20;74.00;;;;;;5056181;28;20040;-62
2022/07/23 05:11:42;;;;;;;9.43;7.57;;;21.20;74.00;;;;;;5054842;28;20159;-62
2022/07/23 05:14:07;;;;;;;9.18;7.72;;;21.20;74.00;;;;;;5054944;28;20447;-66
2022/07/23 05:16:33;;;;;;;8.13;6.90;;;21.20;74.00;;;;;;5053899;28;20029;-63
2022/07/23 05:18:58;;;;;;;9.30;7.13;;;21.20;74.30;;;;;;5053739;28;20665;-67
2022/07/23 05:21:24;;;;;;;7.80;7.03;;;21.10;74.50;;;;;;5055951;28;20047;-66
2022/07/23 05:23:50;;;;;;;9.18;7.25;;;21.20;74.80;;;;;;5055095;28;20085;-71
2022/07/23 05:26:16;;;;;;;8.68;6.93;;;21.20;74.90;;;;;;5057313;28;20389;-70
2022/07/23 05:28:41;;;;;;;9.05;7.00;;;21.20;74.60;;;;;;5059320;28;20033;-69
2022/07/23 05:31:07;;;;;;;7.28;6.55;;;21.20;74.50;;;;;;5057886;28;20455;-69
2022/07/23 05:33:33;;;;;;;7.80;6.13;;;21.10;74.40;;;;;;5064098;28;20060;-70
2022/07/23 05:36:03;;;;;;;7.68;6.53;;;21.20;74.20;;;;;;5060714;28;20036;-70
2022/07/23 05:38:29;;;;;;;6.50;5.90;;;21.20;74.40;;;;;;5057978;28;20040;-69
2022/07/23 05:40:55;;;;;;;8.32;6.70;;;21.20;74.20;;;;;;5057030;28;20119;-69
2022/07/23 05:43:21;;;;;;;7.82;6.25;;;21.10;74.30;;;;;;5057805;28;20246;-71
2022/07/23 05:45:46;;;;;;;9.32;6.85;;;21.10;74.70;;;;;;5056892;28;20114;-70
2022/07/23 05:48:12;;;;;;;9.80;6.60;;;21.00;75.00;;;;;;5056829;28;20184;-70
2022/07/23 05:50:38;;;;;;;10.40;7.47;;;21.00;75.10;;;;;;5059663;28;20047;-68
2022/07/23 05:53:07;;;;;;;8.35;7.47;;;21.00;75.10;;;;;;5058154;28;20032;-69
2022/07/23 05:55:33;;;;;;;10.75;7.88;;;20.90;74.90;;;;;;5054784;28;20135;-70
2022/07/23 05:57:59;;;;;;;6.93;6.25;;;20.90;75.10;;;;;;5056810;28;20059;-75
2022/07/23 06:00:26;;;;;;;7.63;6.80;;;20.80;75.60;;;;;;5050093;28;20051;-64
2022/07/23 06:02:52;;;;;;;9.20;6.60;;;20.80;76.10;;;;;;5052543;28;20400;-69
2022/07/23 06:05:18;;;;;;;7.28;6.40;;;20.80;76.50;;;;;;5055264;28;20041;-70
2022/07/23 06:07:43;;;;;;;6.35;5.75;;;20.80;76.60;;;;;;5057415;28;20522;-69
2022/07/23 06:10:11;;;;;;;8.52;5.93;;;20.90;76.80;;;;;;5051803;28;20115;-70
2022/07/23 06:12:37;;;;;;;6.45;5.85;;;20.90;76.80;;;;;;5049779;28;20519;-68
2022/07/23 06:15:04;;;;;;;7.78;6.60;;;20.90;76.80;;;;;;5054477;28;20226;-71
2022/07/23 06:17:29;;;;;;;6.93;6.22;;;21.00;77.10;;;;;;5058064;28;20104;-70
2022/07/23 06:19:55;;;;;;;8.90;6.72;;;21.00;77.00;;;;;;5053182;28;20531;-71
2022/07/23 06:22:22;;;;;;;8.43;6.22;;;21.00;76.90;;;;;;5060106;28;20028;-72
2022/07/23 06:24:49;;;;;;;6.00;5.25;;;21.10;77.20;;;;;;5057896;28;20481;-72
2022/07/23 06:27:14;;;;;;;5.70;5.10;;;21.10;77.20;;;;;;5057555;28;20174;-71
2022/07/23 06:29:40;;;;;;;6.13;5.53;;;21.10;77.30;;;;;;5059412;28;20063;-71
2022/07/23 06:32:07;;;;;;;5.75;4.95;;;21.10;77.70;;;;;;5057532;28;20082;-70
2022/07/23 06:34:33;;;;;;;6.00;5.40;;;21.20;77.30;;;;;;5057416;28;20052;-62
2022/07/23 06:36:59;;;;;;;6.45;5.70;;;21.20;77.30;;;;;;5055792;28;20527;-64
2022/07/23 06:39:25;;;;;;;6.88;5.60;;;21.30;77.50;;;;;;5056058;28;20455;-63
2022/07/23 06:41:51;;;;;;;6.95;5.68;;;21.30;77.60;;;;;;5055876;28;20020;-63
2022/07/23 06:44:17;;;;;;;5.78;5.20;;;21.30;77.50;;;;;;5054330;28;20032;-63
2022/07/23 06:46:43;;;;;;;6.03;5.28;;;21.40;77.70;;;;;;5055384;28;20420;-63
2022/07/23 06:49:08;;;;;;;6.55;5.40;;;21.40;77.40;;;;;;5054331;28;20052;-65
2022/07/23 06:51:34;;;;;;;5.63;4.72;;;21.50;77.40;;;;;;5054385;28;20032;-65
2022/07/23 06:54:00;;;;;;;5.03;4.57;;;21.50;77.20;;;;;;5054453;28;20106;-65
2022/07/23 06:56:26;;;;;;;5.72;5.22;;;21.60;77.00;;;;;;5054408;28;20068;-64
2022/07/23 06:58:51;;;;;;;5.32;4.90;;;21.60;76.60;;;;;;5053348;28;20043;-64
2022/07/23 07:01:17;;;;;;;6.70;5.15;;;21.70;76.80;;;;;;5053700;28;20033;-62
2022/07/23 07:03:43;;;;;;;5.60;5.05;;;21.70;76.20;;;;;;5055459;28;20182;-62
2022/07/23 07:06:09;;;;;;;5.85;5.10;;;21.80;75.90;;;;;;5054650;28;20045;-63
2022/07/23 07:08:34;;;;;;;5.68;5.07;;;21.80;76.20;;;;;;5054404;28;20033;-66
2022/07/23 07:11:00;;;;;;;9.68;5.00;;;21.80;76.30;;;;;;5054405;28;20029;-64
2022/07/23 07:13:26;;;;;;;5.53;5.03;;;21.90;76.40;;;;;;5056385;28;20484;-63
2022/07/23 07:15:51;;;;;;;5.75;5.10;;;21.90;76.60;;;;;;5056023;28;20044;-64
2022/07/23 07:18:17;;;;;;;5.65;5.13;;;22.00;76.90;;;;;;5055873;28;20029;-64
2022/07/23 07:20:42;;;;;;;6.57;5.60;;;22.10;76.50;;;;;;5054568;28;20036;-63
2022/07/23 07:23:08;;;;;;;6.43;5.82;;;22.10;76.60;;;;;;5051973;28;20139;-65
2022/07/23 07:25:34;;;;;;;5.30;4.90;;;22.30;76.60;;;;;;5052384;28;20562;-61
2022/07/23 07:27:59;;;;;;;6.05;5.32;;;22.30;76.50;;;;;;5052326;28;20553;-63
2022/07/23 07:30:25;;;;;;;5.55;4.97;;;22.40;76.10;;;;;;5049744;28;20158;-64
2022/07/23 07:32:51;;;;;;;6.40;5.75;;;22.50;76.40;;;;;;5052341;28;20496;-64
2022/07/23 07:35:16;;;;;;;5.30;4.88;;;22.60;76.10;;;;;;5055124;28;20624;-67
2022/07/23 07:37:42;;;;;;;6.15;5.40;;;22.60;75.80;;;;;;5054008;28;20041;-65
2022/07/23 07:40:08;;;;;;;5.93;5.32;;;22.70;75.80;;;;;;5053501;28;20044;-65
2022/07/23 07:42:34;;;;;;;6.22;5.32;;;22.80;76.10;;;;;;5051966;28;20135;-64
2022/07/23 07:45:00;;;;;;;5.88;5.28;;;22.90;76.00;;;;;;5053649;28;20155;-65
2022/07/23 07:47:25;;;;;;;5.45;4.95;;;22.90;76.20;;;;;;5054162;28;20071;-66
2022/07/23 07:49:51;;;;;;;7.00;5.45;;;23.00;76.00;;;;;;5053627;28;20038;-63
2022/07/23 07:52:16;;;;;;;5.57;5.10;;;23.10;76.10;;;;;;5052102;28;20036;-64
2022/07/23 07:54:42;;;;;;;5.80;5.30;;;23.30;76.00;;;;;;5052033;28;20041;-63
2022/07/23 07:57:08;;;;;;;5.78;5.28;;;23.40;75.70;;;;;;5050621;28;20116;-62
2022/07/23 07:59:34;;;;;;;5.78;5.28;;;23.50;75.50;;;;;;5051903;28;20040;-65
2022/07/23 08:01:59;;;;;;;5.53;5.03;;;23.60;74.90;;;;;;5052803;28;20060;-64
2022/07/23 08:04:25;;;;;;;5.68;5.18;;;23.70;75.30;;;;;;5050863;28;20261;-64
2022/07/23 08:06:50;;;;;;;6.72;4.93;;;23.80;73.80;;;;;;5053659;28;20059;-64
2022/07/23 08:09:16;;;;;;;5.30;4.90;;;23.90;73.20;;;;;;5053030;28;20563;-64
2022/07/23 08:11:42;;;;;;;5.88;5.00;;;23.90;72.50;;;;;;5051379;28;20462;-63
2022/07/23 08:14:09;;;;;;;4.88;4.45;;;24.00;72.10;;;;;;5050346;28;20129;-62
2022/07/23 08:16:34;;;;;;;5.50;4.78;;;24.10;72.10;;;;;;5049278;28;20466;-64
2022/07/23 08:19:00;;;;;;;4.82;4.45;;;24.10;72.10;;;;;;5051266;28;20110;-66
2022/07/23 08:21:25;;;;;;;5.35;4.90;;;24.20;71.60;;;;;;5052209;28;20049;-62
2022/07/23 08:23:51;;;;;;;5.40;4.97;;;24.10;71.70;;;;;;5048915;28;20037;-62
2022/07/23 08:26:17;;;;;;;8.50;5.30;;;24.30;71.50;;;;;;5052172;28;20495;-63
2022/07/23 08:28:42;;;;;;;5.97;5.38;;;24.40;71.40;;;;;;5052150;28;20405;-64
2022/07/23 08:31:08;;;;;;;5.63;4.90;;;24.40;71.60;;;;;;5049660;28;20060;-65
2022/07/23 08:33:34;;;;;;;5.60;4.82;;;24.50;71.50;;;;;;5051736;28;20025;-64
2022/07/23 08:36:02;;;;;;;5.35;4.95;;;24.60;71.10;;;;;;5051982;28;20060;-63
2022/07/23 08:38:28;;;;;;;5.97;5.38;;;24.60;70.40;;;;;;5052183;28;20071;-65
2022/07/23 08:40:57;;;;;;;5.88;5.32;;;24.60;70.20;;;;;;5052289;28;20454;-61
2022/07/23 08:43:24;;;;;;;6.10;5.60;;;24.70;70.00;;;;;;5050760;28;20032;-67
2022/07/23 08:45:56;;;;;;;6.72;6.07;;;24.70;70.00;;;;;;5051656;28;20492;-64
2022/07/23 08:48:25;;;;;;;6.57;5.93;;;24.70;69.90;;;;;;5054762;28;20036;-64
2022/07/23 08:50:56;;;;;;;6.47;5.65;;;24.70;69.90;;;;;;5051922;28;20043;-65
2022/07/23 08:53:23;;;;;;;6.15;5.60;;;24.70;69.90;;;;;;5050859;28;20135;-63
2022/07/23 08:55:51;;;;;;;6.20;5.60;;;24.70;69.90;;;;;;5054777;28;20403;-62
2022/07/23 08:58:17;;;;;;;7.05;5.72;;;24.70;69.70;;;;;;5053741;28;20651;-64
2022/07/23 09:00:44;;;;;;;5.65;5.15;;;24.70;69.50;;;;;;5054635;28;20090;-66
2022/07/23 09:03:30;;;;;;;6.22;5.63;;;24.80;69.70;;;;;;5059171;28;20039;-63
2022/07/23 09:05:58;;;;;;;6.38;5.50;;;24.80;69.80;;;;;;5055775;28;20029;-61
2022/07/23 09:08:33;;;;;;;6.05;5.55;;;24.80;69.50;;;;;;5059495;28;20320;-67
2022/07/23 09:11:00;;;;;;;5.43;4.93;;;24.80;69.20;;;;;;5059183;28;20037;-63
2022/07/23 09:13:30;;;;;;;6.88;5.78;;;24.90;69.50;;;;;;5058400;28;20587;-63
2022/07/23 09:16:00;;;;;;;6.20;5.60;;;24.90;69.30;;;;;;5059899;28;20051;-64
2022/07/23 09:18:29;;;;;;;6.30;5.78;;;25.00;69.10;;;;;;5055721;28;20699;-64
2022/07/23 09:21:10;;;;;;;7.20;5.03;;;25.00;68.30;;;;;;5056676;28;20046;-62
2022/07/23 09:23:41;;;;;;;5.68;5.07;;;25.10;68.80;;;;;;5055952;28;20032;-64
2022/07/23 09:26:36;;;;;;;7.35;5.50;;;25.10;69.00;;;;;;5054879;28;20399;-63
2022/07/23 09:29:11;;;;;;;6.00;5.43;;;25.30;69.10;;;;;;5057975;28;20528;-64
2022/07/23 09:31:53;;;;;;;5.78;5.13;;;25.40;68.40;;;;;;5054321;28;20036;-63
2022/07/23 09:34:26;;;;;;;6.30;5.55;;;25.50;67.40;;;;;;5055287;28;20730;-63
2022/07/23 09:36:57;;;;;;;6.05;5.45;;;25.60;67.00;;;;;;5052957;28;20056;-68
2022/07/23 09:39:31;;;;;;;6.45;5.60;;;25.70;66.90;;;;;;5052622;28;20467;-64
2022/07/23 09:41:58;;;;;;;5.20;4.80;;;25.80;66.40;;;;;;5056855;28;20028;-70
2022/07/23 09:44:23;;;;;;;5.60;5.15;;;25.80;66.50;;;;;;5057213;28;20048;-71
2022/07/23 09:46:56;;;;;;;5.57;5.07;;;25.90;66.10;;;;;;5059830;28;20033;-70
2022/07/23 09:49:23;;;;;;;6.43;5.35;;;26.00;65.70;;;;;;5055436;28;20500;-72
2022/07/23 09:51:52;;;;;;;6.05;5.47;;;26.00;65.60;;;;;;5057798;28;20043;-70
2022/07/23 09:54:35;;;;;;;5.85;5.22;;;26.10;65.10;;;;;;5057631;28;20086;-69
2022/07/23 09:57:05;;;;;;;6.53;5.63;;;26.10;65.20;;;;;;5058921;28;20412;-71
2022/07/23 09:59:37;;;;;;;6.25;5.65;;;26.20;65.10;;;;;;5059412;28;20436;-69
2022/07/23 10:02:05;;;;;;;5.78;5.18;;;26.30;64.60;;;;;;5056670;28;20067;-66
2022/07/23 10:04:31;;;;;;;6.43;5.82;;;26.40;65.00;;;;;;5053803;28;20048;-67
2022/07/23 10:06:59;;;;;;;6.10;5.57;;;26.40;63.40;;;;;;5055897;28;20080;-69
2022/07/23 10:09:30;;;;;;;8.55;6.15;;;26.50;63.80;;;;;;5058417;28;20032;-71
2022/07/23 10:12:03;;;;;;;6.00;5.38;;;26.60;63.70;;;;;;5057276;28;20091;-70
2022/07/23 10:14:31;;;;;;;6.13;5.63;;;26.70;63.80;;;;;;5055667;28;20119;-70
2022/07/23 10:16:57;;;;;;;6.30;5.70;;;26.80;63.80;;;;;;5056889;28;20106;-65
2022/07/23 10:19:24;;;;;;;6.93;6.05;;;26.90;63.60;;;;;;5054000;28;20041;-60
2022/07/23 10:21:54;;;;;;;6.65;6.05;;;27.00;63.40;;;;;;5058535;28;20092;-70
2022/07/23 10:24:47;;;;;;;7.10;5.78;;;27.10;62.70;;;;;;5058581;28;20519;-70
2022/07/23 10:27:34;;;;;;;6.30;5.70;;;27.20;62.80;;;;;;5062991;28;20082;-69
2022/07/23 10:30:19;;;;;;;6.25;5.68;;;27.30;62.50;;;;;;5059204;28;20041;-72
2022/07/23 10:32:48;;;;;;;;;;;27.40;61.90;;;;;;5053659;28;20036;-70
2022/07/23 10:35:32;;;;;;;6.00;5.40;;;27.50;61.70;;;;;;5054711;28;19912;-71
2022/07/23 10:38:09;;;;;;;6.53;5.93;;;27.50;62.90;;;;;;5059851;28;20067;-69
2022/07/23 10:40:34;;;;;;;7.28;6.60;;;27.50;60.80;;;;;;5054533;28;20048;-71
2022/07/23 10:43:03;;;;;;;7.95;5.88;;;27.50;60.60;;;;;;5056908;28;20036;-71
2022/07/23 10:45:34;;;;;;;7.45;6.00;;;27.60;61.20;;;;;;5055632;28;20040;-69
2022/07/23 10:48:15;;;;;;;6.15;5.55;;;27.60;60.40;;;;;;5056992;28;20033;-70
2022/07/23 10:50:42;;;;;;;6.72;6.13;;;27.50;60.30;;;;;;5055441;28;20047;-68
2022/07/23 10:53:18;;;;;;;6.40;5.90;;;27.60;60.60;;;;;;5053313;28;20032;-65
2022/07/23 10:55:49;;;;;;;7.18;6.05;;;27.60;60.60;;;;;;5056724;28;20400;-63
2022/07/23 10:58:23;;;;;;;6.78;6.18;;;27.60;60.50;;;;;;5055771;28;20507;-62
2022/07/23 11:00:50;;;;;;;6.77;6.10;;;27.60;60.40;;;;;;5052638;28;20160;-62
2022/07/23 11:03:29;;;;;;;7.47;6.15;;;27.70;60.30;;;;;;5055087;28;20271;-65
2022/07/23 11:05:54;;;;;;;6.63;6.00;;;27.60;59.70;;;;;;5051621;28;20068;-64
2022/07/23 11:08:21;;;;;;;8.07;6.50;;;27.60;59.80;;;;;;5054083;28;20056;-63
2022/07/23 11:10:54;;;;;;;6.55;5.95;;;27.60;59.60;;;;;;5054222;28;20504;-64
2022/07/23 11:13:55;;;;;;;7.73;5.80;;;27.50;60.30;;;;;;5018897;28;1067101;-63
2022/07/23 11:16:23;;;;;;;6.65;6.05;;;27.60;59.50;;;;;;5055223;28;20163;-63
2022/07/23 11:18:48;;;;;;;7.72;6.20;;;27.60;59.70;;;;;;5054668;28;20044;-61
2022/07/23 11:21:23;;;;;;;7.43;6.18;;;27.50;59.40;;;;;;5056092;28;20058;-64
2022/07/23 11:24:08;;;;;;;;;;;27.50;59.20;;;;;;5055398;28;20548;-62
2022/07/23 11:26:39;;;;;;;6.55;5.95;;;27.60;59.80;;;;;;5056080;28;19985;-62
2022/07/23 11:29:37;;;;;;;6.43;5.82;;;27.60;59.50;;;;;;5055921;28;20552;-64
2022/07/23 11:32:28;;;;;;;5.55;5.15;;;27.60;59.40;;;;;;5054816;28;20467;-63
2022/07/23 11:34:54;;;;;;;6.50;5.90;;;27.60;59.90;;;;;;5056360;28;20559;-63
2022/07/23 11:37:31;;;;;;;7.40;5.68;;;27.60;61.00;;;;;;5055176;28;20170;-62
2022/07/23 11:39:58;;;;;;;6.63;6.03;;;27.60;60.10;;;;;;5055883;28;20033;-63
2022/07/23 11:42:24;;;;;;;6.63;5.93;;;27.60;59.90;;;;;;5056751;28;20087;-62
2022/07/23 11:44:51;;;;;;;8.70;6.38;;;27.70;60.10;;;;;;5057142;28;20037;-62
2022/07/23 11:47:23;;;;;;;6.70;6.07;;;27.70;59.60;;;;;;5055240;28;20040;-62
2022/07/23 11:50:00;;;;;;;6.88;5.85;;;27.70;59.50;;;;;;5055105;28;20981;-62
2022/07/23 11:52:27;;;;;;;6.25;5.70;;;27.80;59.00;;;;;;5056178;28;20071;-62
2022/07/23 11:55:00;;;;;;;5.68;5.20;;;27.80;59.20;;;;;;5056104;28;20035;-63
2022/07/23 11:57:35;;;;;;;6.82;6.13;;;27.90;59.50;;;;;;5055116;28;20033;-61
2022/07/23 12:00:10;;;;;;;6.85;5.88;;;27.90;58.90;;;;;;5054253;28;20086;-62
2022/07/23 12:02:36;;;;;;;6.60;6.00;;;28.00;59.20;;;;;;5050931;28;21244;-62
2022/07/23 12:05:02;;;;;;;6.40;5.80;;;28.00;59.00;;;;;;5054914;28;20029;-62
2022/07/23 12:07:27;;;;;;;6.70;6.07;;;28.00;58.90;;;;;;5055109;28;20412;-63
2022/07/23 12:09:54;;;;;;;6.40;5.80;;;28.00;58.50;;;;;;5054569;28;20032;-62
2022/07/23 12:12:21;;;;;;;6.75;6.05;;;28.00;58.40;;;;;;5051971;28;20129;-64
2022/07/23 12:14:55;;;;;;;6.95;6.15;;;28.00;58.40;;;;;;5054874;28;20061;-62
2022/07/23 12:17:26;;;;;;;6.43;5.80;;;28.10;58.70;;;;;;5055489;28;20033;-63
2022/07/23 12:19:52;;;;;;;6.10;5.55;;;28.10;58.80;;;;;;5054706;28;20495;-65
2022/07/23 12:22:18;;;;;;;6.47;5.88;;;28.20;58.90;;;;;;5056263;28;20045;-61
2022/07/23 12:24:57;;;;;;;8.73;5.75;;;28.20;58.60;;;;;;5054834;28;20495;-61
2022/07/23 12:27:24;;;;;;;6.28;5.78;;;28.20;58.40;;;;;;5055661;28;20153;-61
2022/07/23 12:29:50;;;;;;;6.85;6.18;;;28.30;58.60;;;;;;5055843;28;20033;-63
2022/07/23 12:32:19;;;;;;;6.78;6.18;;;28.30;58.30;;;;;;5059823;28;20037;-63
2022/07/23 12:34:45;;;;;;;6.97;6.28;;;28.40;58.20;;;;;;5059250;28;20066;-61
2022/07/23 12:37:32;;;;;;;7.13;6.40;;;28.50;58.20;;;;;;5057793;28;20029;-63
2022/07/23 12:39:58;;;;;;;6.95;6.28;;;28.50;58.00;;;;;;5058173;28;20163;-63
2022/07/23 12:42:24;;;;;;;6.65;6.00;;;28.60;58.20;;;;;;5058190;28;20501;-60
2022/07/23 12:45:11;;;;;;;6.32;5.78;;;28.60;58.20;;;;;;5059305;28;20178;-62
2022/07/23 12:48:08;;;;;;;7.05;5.80;;;28.70;57.70;;;;;;5059063;28;20517;-62
2022/07/23 12:50:53;;;;;;;5.95;5.47;;;28.80;57.30;;;;;;5057320;28;20041;-65
2022/07/23 12:53:23;;;;;;;;;;;28.90;57.40;;;;;;5059537;28;20036;-61
2022/07/23 12:55:50;;;;;;;6.50;5.90;;;29.00;57.60;;;;;;5058584;28;20308;-62